createdAt,value
2018-10-06T00:00:00.618Z,858.75
2018-10-06T00:01:00.492Z,858.73
2018-10-06T00:02:00.367Z,858.76
2018-10-06T00:03:00.241Z,858.77
2018-10-06T00:04:00.120Z,858.75
2018-10-06T00:04:59.994Z,858.70
2018-10-06T00:05:59.870Z,858.69
2018-10-06T00:06:59.743Z,858.72
2018-10-06T00:07:59.618Z,858.69
2018-10-06T00:08:59.494Z,858.71
2018-10-06T00:09:59.368Z,858.71
2018-10-06T00:10:59.246Z,858.70
2018-10-06T00:11:59.118Z,858.71
2018-10-06T00:12:58.994Z,858.67
2018-10-06T00:13:58.868Z,858.65
2018-10-06T00:14:58.742Z,858.63
2018-10-06T00:15:58.619Z,858.62
2018-10-06T00:16:58.495Z,858.61
2018-10-06T00:17:58.373Z,858.60
2018-10-06T00:18:58.246Z,858.55
2018-10-06T00:19:58.118Z,858.56
2018-10-06T00:20:57.994Z,858.57
2018-10-06T00:21:57.871Z,858.57
2018-10-06T00:22:57.746Z,858.57
2018-10-06T00:23:57.619Z,858.56
2018-10-06T00:24:57.497Z,858.52
2018-10-06T00:25:57.371Z,858.50
2018-10-06T00:26:57.247Z,858.48
2018-10-06T00:27:57.123Z,858.47
2018-10-06T00:28:56.995Z,858.44
2018-10-06T00:29:56.872Z,858.43
2018-10-06T00:30:56.746Z,858.40
2018-10-06T00:31:56.623Z,858.43
2018-10-06T00:32:56.498Z,858.38
2018-10-06T00:33:56.374Z,858.42
2018-10-06T00:34:56.245Z,858.36
2018-10-06T00:35:56.122Z,858.35
2018-10-06T00:36:55.999Z,858.34
2018-10-06T00:37:55.873Z,858.29
2018-10-06T00:38:55.749Z,858.25
2018-10-06T00:39:55.623Z,858.22
2018-10-06T00:40:55.499Z,858.19
2018-10-06T00:41:55.373Z,858.15
2018-10-06T00:42:55.247Z,858.16
2018-10-06T00:43:55.125Z,858.17
2018-10-06T00:44:54.998Z,858.16
2018-10-06T00:45:54.876Z,858.17
2018-10-06T00:46:54.749Z,858.16
2018-10-06T00:47:54.626Z,858.14
2018-10-06T00:48:54.501Z,858.15
2018-10-06T00:49:54.376Z,858.16
2018-10-06T00:50:54.253Z,858.16
2018-10-06T00:51:54.124Z,858.14
2018-10-06T00:52:54.000Z,858.17
2018-10-06T00:53:53.877Z,858.17
2018-10-06T00:54:53.749Z,858.16
2018-10-06T00:55:53.626Z,858.17
2018-10-06T00:56:53.503Z,858.18
2018-10-06T00:57:53.377Z,858.18
2018-10-06T00:58:53.251Z,858.14
2018-10-06T00:59:53.126Z,858.11
2018-10-06T01:00:53.000Z,858.15
2018-10-06T01:01:52.877Z,858.11
2018-10-06T01:02:52.752Z,858.12
2018-10-06T01:03:52.627Z,858.14
2018-10-06T01:04:52.500Z,858.13
2018-10-06T01:05:52.375Z,858.11
2018-10-06T01:06:52.253Z,858.06
2018-10-06T01:07:52.125Z,858.08
2018-10-06T01:08:52.003Z,858.09
2018-10-06T01:09:51.877Z,858.08
2018-10-06T01:10:51.752Z,858.10
2018-10-06T01:11:51.627Z,858.12
2018-10-06T01:12:51.500Z,858.11
2018-10-06T01:13:51.376Z,858.12
2018-10-06T01:14:51.252Z,858.10
2018-10-06T01:15:51.127Z,858.11
2018-10-06T01:16:51.002Z,858.08
2018-10-06T01:17:50.876Z,858.10
2018-10-06T01:18:50.749Z,858.06
2018-10-06T01:19:50.626Z,858.03
2018-10-06T01:20:50.502Z,858.04
2018-10-06T01:21:50.376Z,858.04
2018-10-06T01:22:50.254Z,858.00
2018-10-06T01:23:50.129Z,857.99
2018-10-06T01:24:50.006Z,857.97
2018-10-06T01:25:49.878Z,857.98
2018-10-06T01:26:49.753Z,857.96
2018-10-06T01:27:49.628Z,857.98
2018-10-06T01:28:49.501Z,857.91
2018-10-06T01:29:49.380Z,857.96
2018-10-06T01:30:49.253Z,857.94
2018-10-06T01:31:49.132Z,857.89
2018-10-06T01:32:49.004Z,857.91
2018-10-06T01:33:48.888Z,857.91
2018-10-06T01:34:48.755Z,857.92
2018-10-06T01:35:48.630Z,857.94
2018-10-06T01:36:48.506Z,857.94
2018-10-06T01:37:48.382Z,857.92
2018-10-06T01:38:48.256Z,857.87
2018-10-06T01:39:48.130Z,857.87
2018-10-06T01:40:48.005Z,857.87
2018-10-06T01:41:47.882Z,857.86
2018-10-06T01:42:47.756Z,857.80
2018-10-06T01:43:47.631Z,857.79
2018-10-06T01:44:47.509Z,857.79
2018-10-06T01:45:47.383Z,857.76
2018-10-06T01:46:47.255Z,857.78
2018-10-06T01:47:47.134Z,857.77
2018-10-06T01:48:47.006Z,857.78
2018-10-06T01:49:46.940Z,857.78
2018-10-06T01:50:46.757Z,857.77
2018-10-06T01:51:46.633Z,857.83
2018-10-06T01:52:46.508Z,857.83
2018-10-06T01:53:46.384Z,857.81
2018-10-06T01:54:46.256Z,857.80
2018-10-06T01:55:46.132Z,857.81
2018-10-06T01:56:46.007Z,857.79
2018-10-06T01:57:45.884Z,857.75
2018-10-06T01:58:45.757Z,857.70
2018-10-06T01:59:45.634Z,857.70
2018-10-06T02:00:45.506Z,857.65
2018-10-06T02:01:45.383Z,857.65
2018-10-06T02:02:45.261Z,857.64
2018-10-06T02:03:45.132Z,857.60
2018-10-06T02:04:45.007Z,857.60
2018-10-06T02:05:44.883Z,857.61
2018-10-06T02:06:44.757Z,857.60
2018-10-06T02:07:44.632Z,857.60
2018-10-06T02:08:44.507Z,857.64
2018-10-06T02:09:44.386Z,857.64
2018-10-06T02:10:44.256Z,857.67
2018-10-06T02:11:44.132Z,857.65
2018-10-06T02:12:44.011Z,857.65
2018-10-06T02:13:43.885Z,857.62
2018-10-06T02:14:43.758Z,857.64
2018-10-06T02:15:43.638Z,857.62
2018-10-06T02:16:43.513Z,857.59
2018-10-06T02:17:43.384Z,857.59
2018-10-06T02:18:43.260Z,857.60
2018-10-06T02:19:43.136Z,857.59
2018-10-06T02:20:43.009Z,857.63
2018-10-06T02:21:42.887Z,857.59
2018-10-06T02:22:42.759Z,857.62
2018-10-06T02:23:42.642Z,857.60
2018-10-06T02:24:42.511Z,857.59
2018-10-06T02:25:42.385Z,857.53
2018-10-06T02:26:42.259Z,857.54
2018-10-06T02:27:42.134Z,857.54
2018-10-06T02:28:42.009Z,857.50
2018-10-06T02:29:41.888Z,857.55
2018-10-06T02:30:41.760Z,857.56
2018-10-06T02:31:41.638Z,857.58
2018-10-06T02:32:41.510Z,857.55
2018-10-06T02:33:41.386Z,857.57
2018-10-06T02:34:41.260Z,857.56
2018-10-06T02:35:41.136Z,857.59
2018-10-06T02:36:41.043Z,857.57
2018-10-06T02:37:40.887Z,857.55
2018-10-06T02:38:40.764Z,857.57
2018-10-06T02:39:40.636Z,857.55
2018-10-06T02:40:40.510Z,857.53
2018-10-06T02:41:40.386Z,857.52
2018-10-06T02:42:40.265Z,857.49
2018-10-06T02:43:40.136Z,857.52
2018-10-06T02:44:40.013Z,857.48
2018-10-06T02:45:39.886Z,857.48
2018-10-06T02:46:39.760Z,857.47
2018-10-06T02:47:39.635Z,857.52
2018-10-06T02:48:39.512Z,857.46
2018-10-06T02:49:39.385Z,857.47
2018-10-06T02:50:39.262Z,857.47
2018-10-06T02:51:39.135Z,857.45
2018-10-06T02:52:39.011Z,857.47
2018-10-06T02:53:38.885Z,857.45
2018-10-06T02:54:38.759Z,857.45
2018-10-06T02:55:38.646Z,857.44
2018-10-06T02:56:38.510Z,857.41
2018-10-06T02:57:38.387Z,857.38
2018-10-06T02:58:38.264Z,857.35
2018-10-06T02:59:38.134Z,857.35
2018-10-06T03:00:38.014Z,857.34
2018-10-06T03:01:37.886Z,857.29
2018-10-06T03:02:37.761Z,857.31
2018-10-06T03:03:37.640Z,857.26
2018-10-06T03:04:37.512Z,857.27
2018-10-06T03:05:37.395Z,857.27
2018-10-06T03:06:37.262Z,857.25
2018-10-06T03:07:37.139Z,857.25
2018-10-06T03:08:37.013Z,857.22
2018-10-06T03:09:36.886Z,857.24
2018-10-06T03:10:36.761Z,857.23
2018-10-06T03:11:36.638Z,857.22
2018-10-06T03:12:36.514Z,857.18
2018-10-06T03:13:36.390Z,857.21
2018-10-06T03:14:36.262Z,857.16
2018-10-06T03:15:36.138Z,857.19
2018-10-06T03:16:36.014Z,857.22
2018-10-06T03:17:35.888Z,857.19
2018-10-06T03:18:35.765Z,857.16
2018-10-06T03:19:35.641Z,857.18
2018-10-06T03:20:35.517Z,857.20
2018-10-06T03:21:35.391Z,857.15
2018-10-06T03:22:35.262Z,857.19
2018-10-06T03:23:35.138Z,857.14
2018-10-06T03:24:35.016Z,857.13
2018-10-06T03:25:34.889Z,857.13
2018-10-06T03:26:34.767Z,857.16
2018-10-06T03:27:34.641Z,857.15
2018-10-06T03:28:34.516Z,857.13
2018-10-06T03:29:34.388Z,857.15
2018-10-06T03:30:34.266Z,857.09
2018-10-06T03:31:34.139Z,857.11
2018-10-06T03:32:34.015Z,857.08
2018-10-06T03:33:33.892Z,857.07
2018-10-06T03:34:33.764Z,857.03
2018-10-06T03:35:33.639Z,857.04
2018-10-06T03:36:33.529Z,857.03
2018-10-06T03:37:33.391Z,857.05
2018-10-06T03:38:33.267Z,857.02
2018-10-06T03:39:33.139Z,857.07
2018-10-06T03:40:33.015Z,857.11
2018-10-06T03:41:32.891Z,857.08
2018-10-06T03:42:32.764Z,857.07
2018-10-06T03:43:32.641Z,857.04
2018-10-06T03:44:32.515Z,857.07
2018-10-06T03:45:32.390Z,857.05
2018-10-06T03:46:32.267Z,857.06
2018-10-06T03:47:32.139Z,857.06
2018-10-06T03:48:32.016Z,857.08
2018-10-06T03:49:31.894Z,857.12
2018-10-06T03:50:31.766Z,857.15
2018-10-06T03:51:31.642Z,857.11
2018-10-06T03:52:31.520Z,857.12
2018-10-06T03:53:31.393Z,857.12
2018-10-06T03:54:31.271Z,857.11
2018-10-06T03:55:31.143Z,857.09
2018-10-06T03:56:31.020Z,857.07
2018-10-06T03:57:30.895Z,857.08
2018-10-06T03:58:30.769Z,857.07
2018-10-06T03:59:30.644Z,857.08
2018-10-06T04:00:30.519Z,857.05
2018-10-06T04:01:30.395Z,857.03
2018-10-06T04:02:30.269Z,857.02
2018-10-06T04:03:30.145Z,857.02
2018-10-06T04:04:30.021Z,857.01
2018-10-06T04:05:29.897Z,857.01
2018-10-06T04:06:29.773Z,857.05
2018-10-06T04:07:29.647Z,857.01
2018-10-06T04:08:29.525Z,857.02
2018-10-06T04:09:29.397Z,857.05
2018-10-06T04:10:29.274Z,857.00
2018-10-06T04:11:29.146Z,856.99
2018-10-06T04:12:29.026Z,856.96
2018-10-06T04:13:28.897Z,856.97
2018-10-06T04:14:28.771Z,856.94
2018-10-06T04:15:28.646Z,856.94
2018-10-06T04:16:28.520Z,856.99
2018-10-06T04:17:28.397Z,856.95
2018-10-06T04:18:28.270Z,856.93
2018-10-06T04:19:28.145Z,856.96
2018-10-06T04:20:28.025Z,856.99
2018-10-06T04:21:27.895Z,856.95
2018-10-06T04:22:27.765Z,856.96
2018-10-06T04:23:27.639Z,856.92
2018-10-06T04:24:27.518Z,856.93
2018-10-06T04:25:27.390Z,856.91
2018-10-06T04:26:27.266Z,856.92
2018-10-06T04:27:27.138Z,856.88
2018-10-06T04:28:27.086Z,856.89
2018-10-06T04:29:26.895Z,856.91
2018-10-06T04:30:26.762Z,856.87
2018-10-06T04:31:26.635Z,856.92
2018-10-06T04:32:26.537Z,856.88
2018-10-06T04:33:26.388Z,856.93
2018-10-06T04:34:26.262Z,856.90
2018-10-06T04:35:26.132Z,856.91
2018-10-06T04:36:26.008Z,856.93
2018-10-06T04:37:25.883Z,856.94
2018-10-06T04:38:25.756Z,856.89
2018-10-06T04:39:25.632Z,856.86
2018-10-06T04:40:25.514Z,856.88
2018-10-06T04:41:25.382Z,856.85
2018-10-06T04:42:25.253Z,856.86
2018-10-06T04:43:25.129Z,856.84
2018-10-06T04:44:25.002Z,856.88
2018-10-06T04:45:24.878Z,856.89
2018-10-06T04:46:24.753Z,856.85
2018-10-06T04:47:24.629Z,856.85
2018-10-06T04:48:24.500Z,856.83
2018-10-06T04:49:24.377Z,856.81
2018-10-06T04:50:24.254Z,856.79
2018-10-06T04:51:24.124Z,856.85
2018-10-06T04:52:24.000Z,856.82
2018-10-06T04:53:23.875Z,856.85
2018-10-06T04:54:23.749Z,856.88
2018-10-06T04:55:23.624Z,856.90
2018-10-06T04:56:23.523Z,856.92
2018-10-06T04:57:23.375Z,856.87
2018-10-06T04:58:23.247Z,856.87
2018-10-06T04:59:23.122Z,856.87
2018-10-06T05:00:22.999Z,856.87
2018-10-06T05:01:22.874Z,856.87
2018-10-06T05:02:22.746Z,856.84
2018-10-06T05:03:22.668Z,856.81
2018-10-06T05:04:22.497Z,856.86
2018-10-06T05:05:22.378Z,856.82
2018-10-06T05:06:22.248Z,856.80
2018-10-06T05:07:22.120Z,856.80
2018-10-06T05:08:21.995Z,856.79
2018-10-06T05:09:21.958Z,856.79
2018-10-06T05:10:21.745Z,856.82
2018-10-06T05:11:21.619Z,856.78
2018-10-06T05:12:21.494Z,856.83
2018-10-06T05:13:21.369Z,856.79
2018-10-06T05:14:21.245Z,856.78
2018-10-06T05:15:21.119Z,856.80
2018-10-06T05:16:20.997Z,856.79
2018-10-06T05:17:20.874Z,856.82
2018-10-06T05:18:20.742Z,856.80
2018-10-06T05:19:20.616Z,856.81
2018-10-06T05:20:20.499Z,856.85
2018-10-06T05:21:20.367Z,856.79
2018-10-06T05:22:20.240Z,856.80
2018-10-06T05:23:20.154Z,856.79
2018-10-06T05:24:19.993Z,856.76
2018-10-06T05:25:19.869Z,856.77
2018-10-06T05:26:19.742Z,856.78
2018-10-06T05:27:19.619Z,856.78
2018-10-06T05:28:19.492Z,856.81
2018-10-06T05:29:19.367Z,856.78
2018-10-06T05:30:19.241Z,856.80
2018-10-06T05:31:19.118Z,856.78
2018-10-06T05:32:18.993Z,856.79
2018-10-06T05:33:18.870Z,856.79
2018-10-06T05:34:18.742Z,856.80
2018-10-06T05:35:18.621Z,856.80
2018-10-06T05:36:18.495Z,856.82
2018-10-06T05:37:18.365Z,856.82
2018-10-06T05:38:18.241Z,856.87
2018-10-06T05:39:18.116Z,856.86
2018-10-06T05:40:17.992Z,856.88
2018-10-06T05:41:17.867Z,856.87
2018-10-06T05:42:17.741Z,856.89
2018-10-06T05:43:17.614Z,856.89
2018-10-06T05:44:17.491Z,856.88
2018-10-06T05:45:17.365Z,856.89
2018-10-06T05:46:17.250Z,856.88
2018-10-06T05:47:17.113Z,856.89
2018-10-06T05:48:16.989Z,856.87
2018-10-06T05:49:16.865Z,856.91
2018-10-06T05:50:16.737Z,856.87
2018-10-06T05:51:16.612Z,856.91
2018-10-06T05:52:16.489Z,856.86
2018-10-06T05:53:16.364Z,856.87
2018-10-06T05:54:16.239Z,856.83
2018-10-06T05:55:16.112Z,856.85
2018-10-06T05:56:15.985Z,856.85
2018-10-06T05:57:15.864Z,856.87
2018-10-06T05:58:15.737Z,856.89
2018-10-06T05:59:15.700Z,856.85
2018-10-06T06:00:15.487Z,856.89
2018-10-06T06:01:15.362Z,856.89
2018-10-06T06:02:15.279Z,856.87
2018-10-06T06:03:15.111Z,856.89
2018-10-06T06:04:14.987Z,856.87
2018-10-06T06:05:14.863Z,856.89
2018-10-06T06:06:14.738Z,856.89
2018-10-06T06:07:14.614Z,856.86
2018-10-06T06:08:14.491Z,856.87
2018-10-06T06:09:14.369Z,856.88
2018-10-06T06:10:14.242Z,856.90
2018-10-06T06:11:14.113Z,856.91
2018-10-06T06:12:13.987Z,856.90
2018-10-06T06:13:13.863Z,856.93
2018-10-06T06:14:13.740Z,856.92
2018-10-06T06:15:13.613Z,856.85
2018-10-06T06:16:13.491Z,856.90
2018-10-06T06:17:13.379Z,856.88
2018-10-06T06:18:13.239Z,856.83
2018-10-06T06:19:13.111Z,856.83
2018-10-06T06:20:12.987Z,856.83
2018-10-06T06:21:12.867Z,856.86
2018-10-06T06:22:12.735Z,856.84
2018-10-06T06:23:12.613Z,856.86
2018-10-06T06:24:12.487Z,856.86
2018-10-06T06:25:12.364Z,856.90
2018-10-06T06:26:12.235Z,856.87
2018-10-06T06:27:12.113Z,856.87
2018-10-06T06:28:11.987Z,856.87
2018-10-06T06:29:11.864Z,856.87
2018-10-06T06:30:11.737Z,856.88
2018-10-06T06:31:11.615Z,856.91
2018-10-06T06:32:11.529Z,856.90
2018-10-06T06:33:11.362Z,856.93
2018-10-06T06:34:11.235Z,856.89
2018-10-06T06:35:11.110Z,856.93
2018-10-06T06:36:10.987Z,856.91
2018-10-06T06:37:10.862Z,856.92
2018-10-06T06:38:10.746Z,856.92
2018-10-06T06:39:10.613Z,856.95
2018-10-06T06:40:10.487Z,856.95
2018-10-06T06:41:10.361Z,856.92
2018-10-06T06:42:10.238Z,856.92
2018-10-06T06:43:10.111Z,856.93
2018-10-06T06:44:10.050Z,856.94
2018-10-06T06:45:09.941Z,856.96
2018-10-06T06:46:09.740Z,856.92
2018-10-06T06:47:09.611Z,856.94
2018-10-06T06:48:09.487Z,856.96
2018-10-06T06:49:09.365Z,856.93
2018-10-06T06:50:09.239Z,856.95
2018-10-06T06:51:09.112Z,856.94
2018-10-06T06:52:08.992Z,856.96
2018-10-06T06:53:08.871Z,856.90
2018-10-06T06:54:08.741Z,856.93
2018-10-06T06:55:08.679Z,856.93
2018-10-06T06:56:08.491Z,856.93
2018-10-06T06:57:08.366Z,856.91
2018-10-06T06:58:08.245Z,856.92
2018-10-06T06:59:08.120Z,856.96
2018-10-06T07:00:07.997Z,856.98
2018-10-06T07:01:07.874Z,856.98
2018-10-06T07:02:07.746Z,856.94
2018-10-06T07:03:07.622Z,856.96
2018-10-06T07:04:07.501Z,856.95
2018-10-06T07:05:07.376Z,856.96
2018-10-06T07:06:07.252Z,856.97
2018-10-06T07:07:07.131Z,856.96
2018-10-06T07:08:07.006Z,856.98
2018-10-06T07:09:06.881Z,856.94
2018-10-06T07:10:06.758Z,856.97
2018-10-06T07:11:06.638Z,856.96
2018-10-06T07:12:06.510Z,856.94
2018-10-06T07:13:06.387Z,856.93
2018-10-06T07:14:06.263Z,856.95
2018-10-06T07:15:06.140Z,856.94
2018-10-06T07:16:06.021Z,856.92
2018-10-06T07:17:05.899Z,856.90
2018-10-06T07:18:05.772Z,856.92
2018-10-06T07:19:05.701Z,856.89
2018-10-06T07:20:05.528Z,856.89
2018-10-06T07:21:05.447Z,856.93
2018-10-06T07:22:05.283Z,856.92
2018-10-06T07:23:05.159Z,856.93
2018-10-06T07:24:05.037Z,856.93
2018-10-06T07:25:04.914Z,856.92
2018-10-06T07:26:04.792Z,856.91
2018-10-06T07:27:04.672Z,856.91
2018-10-06T07:28:04.545Z,856.92
2018-10-06T07:29:04.424Z,856.89
2018-10-06T07:30:04.301Z,856.90
2018-10-06T07:31:04.178Z,856.87
2018-10-06T07:32:04.068Z,856.89
2018-10-06T07:33:03.935Z,856.90
2018-10-06T07:34:03.811Z,856.90
2018-10-06T07:35:03.692Z,856.87
2018-10-06T07:36:03.570Z,856.86
2018-10-06T07:37:03.447Z,856.84
2018-10-06T07:38:03.374Z,856.83
2018-10-06T07:39:03.202Z,856.88
2018-10-06T07:40:03.080Z,856.88
2018-10-06T07:41:02.960Z,856.86
2018-10-06T07:42:02.835Z,856.85
2018-10-06T07:43:02.715Z,856.81
2018-10-06T07:44:02.593Z,856.81
2018-10-06T07:45:02.540Z,856.80
2018-10-06T07:46:02.353Z,856.78
2018-10-06T07:47:02.261Z,856.78
2018-10-06T07:48:02.111Z,856.77
2018-10-06T07:49:01.986Z,856.76
2018-10-06T07:50:01.870Z,856.74
2018-10-06T07:51:01.746Z,856.74
2018-10-06T07:52:01.622Z,856.74
2018-10-06T07:53:01.549Z,856.77
2018-10-06T07:54:01.380Z,856.76
2018-10-06T07:55:01.259Z,856.73
2018-10-06T07:56:01.137Z,856.74
2018-10-06T07:57:01.017Z,856.74
2018-10-06T07:58:00.893Z,856.73
2018-10-06T07:59:00.770Z,856.72
2018-10-06T08:00:00.650Z,856.73
2018-10-06T08:01:00.531Z,856.73
2018-10-06T08:02:00.410Z,856.73
2018-10-06T08:03:00.289Z,856.75
2018-10-06T08:04:00.175Z,856.74
2018-10-06T08:05:00.046Z,856.70
2018-10-06T08:05:59.924Z,856.68
2018-10-06T08:06:59.808Z,856.65
2018-10-06T08:07:59.683Z,856.63
2018-10-06T08:08:59.563Z,856.61
2018-10-06T08:09:59.442Z,856.57
2018-10-06T08:10:59.323Z,856.62
2018-10-06T08:11:59.207Z,856.63
2018-10-06T08:12:59.083Z,856.59
2018-10-06T08:13:58.962Z,856.57
2018-10-06T08:14:58.840Z,856.56
2018-10-06T08:15:58.722Z,856.54
2018-10-06T08:16:58.601Z,856.56
2018-10-06T08:17:58.480Z,856.52
2018-10-06T08:18:58.360Z,856.55
2018-10-06T08:19:58.241Z,856.58
2018-10-06T08:20:58.120Z,856.57
2018-10-06T08:21:57.999Z,856.58
2018-10-06T08:22:57.882Z,856.58
2018-10-06T08:23:57.760Z,856.52
2018-10-06T08:24:57.641Z,856.54
2018-10-06T08:25:57.523Z,856.55
2018-10-06T08:26:57.400Z,856.48
2018-10-06T08:27:57.284Z,856.51
2018-10-06T08:28:57.175Z,856.48
2018-10-06T08:29:57.065Z,856.47
2018-10-06T08:30:56.921Z,856.46
2018-10-06T08:31:56.920Z,856.46
2018-10-06T08:32:56.793Z,856.42
2018-10-06T08:33:56.731Z,856.39
2018-10-06T08:34:56.497Z,856.45
2018-10-06T08:35:56.327Z,856.41
2018-10-06T08:36:56.204Z,856.45
2018-10-06T08:37:56.078Z,856.45
2018-10-06T08:38:55.964Z,856.39
2018-10-06T08:39:55.851Z,856.40
2018-10-06T08:40:55.722Z,856.39
2018-10-06T08:41:55.607Z,856.40
2018-10-06T08:42:55.541Z,856.44
2018-10-06T08:43:55.364Z,856.38
2018-10-06T08:44:55.243Z,856.40
2018-10-06T08:45:55.161Z,856.36
2018-10-06T08:46:55.006Z,856.38
2018-10-06T08:47:54.881Z,856.36
2018-10-06T08:48:54.768Z,856.39
2018-10-06T08:49:54.650Z,856.35
2018-10-06T08:50:54.530Z,856.35
2018-10-06T08:51:54.406Z,856.34
2018-10-06T08:52:54.295Z,856.33
2018-10-06T08:53:54.170Z,856.31
2018-10-06T08:54:54.049Z,856.31
2018-10-06T08:55:54.015Z,856.30
2018-10-06T08:56:53.810Z,856.31
2018-10-06T08:57:53.689Z,856.29
2018-10-06T08:58:53.573Z,856.30
2018-10-06T08:59:53.469Z,856.30
2018-10-06T09:00:53.333Z,856.32
2018-10-06T09:01:53.212Z,856.31
2018-10-06T09:02:53.102Z,856.28
2018-10-06T09:03:52.975Z,856.27
2018-10-06T09:04:52.856Z,856.25
2018-10-06T09:05:52.735Z,856.28
2018-10-06T09:06:52.617Z,856.26
2018-10-06T09:07:52.496Z,856.26
2018-10-06T09:08:52.378Z,856.26
2018-10-06T09:09:52.262Z,856.22
2018-10-06T09:10:52.153Z,856.24
2018-10-06T09:11:52.019Z,856.21
2018-10-06T09:12:51.902Z,856.22
2018-10-06T09:13:51.783Z,856.20
2018-10-06T09:14:51.662Z,856.18
2018-10-06T09:15:51.546Z,856.19
2018-10-06T09:16:51.484Z,856.15
2018-10-06T09:17:51.355Z,856.12
2018-10-06T09:18:51.189Z,856.13
2018-10-06T09:19:51.078Z,856.11
2018-10-06T09:20:50.948Z,856.11
2018-10-06T09:21:50.835Z,856.12
2018-10-06T09:22:50.711Z,856.12
2018-10-06T09:23:50.592Z,856.08
2018-10-06T09:24:50.473Z,856.09
2018-10-06T09:25:50.352Z,856.07
2018-10-06T09:26:50.233Z,856.06
2018-10-06T09:27:50.141Z,856.05
2018-10-06T09:28:50.705Z,856.05
2018-10-06T09:29:49.974Z,855.98
2018-10-06T09:30:49.765Z,856.01
2018-10-06T09:31:49.639Z,856.01
2018-10-06T09:32:49.521Z,855.99
2018-10-06T09:33:49.455Z,855.98
2018-10-06T09:34:49.285Z,855.93
2018-10-06T09:35:49.166Z,855.94
2018-10-06T09:36:49.047Z,855.93
2018-10-06T09:37:48.926Z,855.88
2018-10-06T09:38:48.806Z,855.92
2018-10-06T09:39:48.688Z,855.90
2018-10-06T09:40:48.569Z,855.87
2018-10-06T09:41:48.497Z,855.91
2018-10-06T09:42:48.486Z,855.87
2018-10-06T09:43:48.216Z,855.85
2018-10-06T09:44:48.094Z,855.87
2018-10-06T09:45:47.976Z,855.87
2018-10-06T09:46:47.856Z,855.85
2018-10-06T09:47:47.739Z,855.86
2018-10-06T09:48:47.620Z,855.83
2018-10-06T09:49:47.501Z,855.76
2018-10-06T09:50:47.384Z,855.76
2018-10-06T09:51:47.267Z,855.80
2018-10-06T09:52:47.148Z,855.74
2018-10-06T09:53:47.127Z,855.79
2018-10-06T09:54:46.909Z,855.78
2018-10-06T09:55:46.847Z,855.75
2018-10-06T09:56:46.679Z,855.68
2018-10-06T09:57:46.554Z,855.75
2018-10-06T09:58:46.621Z,855.67
2018-10-06T09:59:46.323Z,855.69
2018-10-06T10:00:46.205Z,855.66
2018-10-06T10:01:46.085Z,855.65
2018-10-06T10:02:45.969Z,855.66
2018-10-06T10:03:45.850Z,855.62
2018-10-06T10:04:45.736Z,855.60
2018-10-06T10:05:45.652Z,855.58
2018-10-06T10:06:45.498Z,855.57
2018-10-06T10:07:45.424Z,855.53
2018-10-06T10:08:45.274Z,855.47
2018-10-06T10:09:45.258Z,855.51
2018-10-06T10:10:45.065Z,855.49
2018-10-06T10:11:44.933Z,855.49
2018-10-06T10:12:44.862Z,855.50
2018-10-06T10:13:44.676Z,855.53
2018-10-06T10:14:44.576Z,855.54
2018-10-06T10:15:44.441Z,855.53
2018-10-06T10:16:44.324Z,855.53
2018-10-06T10:17:44.338Z,855.51
2018-10-06T10:18:44.089Z,855.53
2018-10-06T10:19:44.110Z,855.58
2018-10-06T10:20:43.867Z,855.53
2018-10-06T10:21:43.795Z,855.50
2018-10-06T10:22:43.722Z,855.51
2018-10-06T10:23:43.557Z,855.47
2018-10-06T10:24:43.386Z,855.49
2018-10-06T10:25:43.300Z,855.47
2018-10-06T10:26:43.182Z,855.46
2018-10-06T10:27:43.036Z,855.43
2018-10-06T10:28:42.928Z,855.39
2018-10-06T10:29:42.800Z,855.39
2018-10-06T10:30:42.681Z,855.39
2018-10-06T10:31:42.565Z,855.40
2018-10-06T10:32:42.447Z,855.38
2018-10-06T10:33:42.336Z,855.34
2018-10-06T10:34:42.210Z,855.34
2018-10-06T10:35:42.093Z,855.32
2018-10-06T10:36:41.973Z,855.36
2018-10-06T10:37:41.973Z,855.35
2018-10-06T10:38:41.781Z,855.34
2018-10-06T10:39:41.653Z,855.37
2018-10-06T10:40:41.498Z,855.35
2018-10-06T10:41:41.378Z,855.33
2018-10-06T10:42:41.257Z,855.34
2018-10-06T10:43:41.140Z,855.31
2018-10-06T10:44:41.019Z,855.30
2018-10-06T10:45:40.903Z,855.31
2018-10-06T10:46:40.867Z,855.29
2018-10-06T10:47:40.673Z,855.28
2018-10-06T10:48:40.545Z,855.27
2018-10-06T10:49:40.428Z,855.25
2018-10-06T10:50:40.378Z,855.20
2018-10-06T10:51:40.185Z,855.20
2018-10-06T10:52:40.066Z,855.17
2018-10-06T10:53:39.946Z,855.13
2018-10-06T10:54:39.858Z,855.12
2018-10-06T10:55:39.739Z,855.06
2018-10-06T10:56:39.590Z,855.06
2018-10-06T10:57:39.536Z,855.03
2018-10-06T10:58:39.348Z,855.01
2018-10-06T10:59:39.312Z,855.01
2018-10-06T11:00:39.158Z,854.98
2018-10-06T11:01:38.998Z,854.98
2018-10-06T11:02:38.872Z,854.98
2018-10-06T11:03:38.751Z,854.91
2018-10-06T11:04:38.664Z,854.94
2018-10-06T11:05:38.512Z,854.87
2018-10-06T11:06:38.408Z,854.86
2018-10-06T11:07:38.276Z,854.87
2018-10-06T11:08:38.156Z,854.85
2018-10-06T11:09:38.196Z,854.85
2018-10-06T11:10:37.919Z,854.84
2018-10-06T11:11:37.802Z,854.80
2018-10-06T11:12:37.683Z,854.81
2018-10-06T11:13:37.573Z,854.79
2018-10-06T11:14:37.451Z,854.75
2018-10-06T11:15:37.328Z,854.76
2018-10-06T11:16:37.207Z,854.76
2018-10-06T11:17:37.092Z,854.73
2018-10-06T11:18:36.970Z,854.75
2018-10-06T11:19:36.854Z,854.76
2018-10-06T11:20:36.732Z,854.75
2018-10-06T11:21:36.614Z,854.74
2018-10-06T11:22:36.495Z,854.71
2018-10-06T11:23:36.378Z,854.69
2018-10-06T11:24:36.264Z,854.66
2018-10-06T11:25:36.139Z,854.65
2018-10-06T11:26:36.022Z,854.65
2018-10-06T11:27:35.904Z,854.62
2018-10-06T11:28:35.788Z,854.63
2018-10-06T11:29:35.668Z,854.60
2018-10-06T11:30:35.546Z,854.59
2018-10-06T11:31:35.429Z,854.54
2018-10-06T11:32:35.324Z,854.55
2018-10-06T11:33:35.191Z,854.51
2018-10-06T11:34:35.069Z,854.49
2018-10-06T11:35:34.951Z,854.48
2018-10-06T11:36:34.834Z,854.49
2018-10-06T11:37:34.748Z,854.48
2018-10-06T11:38:34.594Z,854.44
2018-10-06T11:39:34.480Z,854.43
2018-10-06T11:40:34.357Z,854.40
2018-10-06T11:41:34.236Z,854.39
2018-10-06T11:42:34.117Z,854.40
2018-10-06T11:43:34.031Z,854.37
2018-10-06T11:44:33.877Z,854.38
2018-10-06T11:45:33.758Z,854.34
2018-10-06T11:46:33.639Z,854.32
2018-10-06T11:47:33.519Z,854.32
2018-10-06T11:48:33.398Z,854.32
2018-10-06T11:49:33.279Z,854.28
2018-10-06T11:50:33.160Z,854.21
2018-10-06T11:51:33.047Z,854.22
2018-10-06T11:52:32.921Z,854.21
2018-10-06T11:53:32.799Z,854.19
2018-10-06T11:54:32.678Z,854.18
2018-10-06T11:55:32.561Z,854.19
2018-10-06T11:56:32.439Z,854.18
2018-10-06T11:57:32.318Z,854.16
2018-10-06T11:58:32.214Z,854.18
2018-10-06T11:59:32.079Z,854.17
2018-10-06T12:00:32.015Z,854.16
2018-10-06T12:01:31.840Z,854.13
2018-10-06T12:02:31.719Z,854.14
2018-10-06T12:03:31.600Z,854.15
2018-10-06T12:04:31.501Z,854.11
2018-10-06T12:05:31.361Z,854.08
2018-10-06T12:06:31.251Z,854.10
2018-10-06T12:07:31.121Z,854.08
2018-10-06T12:08:31.001Z,854.10
2018-10-06T12:09:30.878Z,854.01
2018-10-06T12:10:30.764Z,854.03
2018-10-06T12:11:30.642Z,854.02
2018-10-06T12:12:30.521Z,854.07
2018-10-06T12:13:30.404Z,854.06
2018-10-06T12:14:30.287Z,854.04
2018-10-06T12:15:30.161Z,854.00
2018-10-06T12:16:30.041Z,854.01
2018-10-06T12:17:29.920Z,853.95
2018-10-06T12:18:29.801Z,853.92
2018-10-06T12:19:29.681Z,853.94
2018-10-06T12:20:29.593Z,853.94
2018-10-06T12:21:29.442Z,853.92
2018-10-06T12:22:29.322Z,853.90
2018-10-06T12:23:29.200Z,853.94
2018-10-06T12:24:29.081Z,853.91
2018-10-06T12:25:28.960Z,853.89
2018-10-06T12:26:28.843Z,853.90